Amana, Iowa
Current Conditions -  °F | °C
As of 3:30 AM on Thursday 27 Nov 2014 (Local Time) from KCID Reporting Station
Overcast Overcast  
Wind Chill:   Ceiling: 1100
Heat Index: 22°   Visibility: 8mi
Dew Point: 19°   Wind: 21mph
Humidity: 89%   Direction: 300°WNW
Pressure: 30.35"   Gusts: NA
Location:  41.8°N, 91.87°W
Report Text: KCID 270930Z AUTO 30018KT 8SM BKN011 BKN015 OVC033 M06/M07 A3035 RMK AO2 CIG 009V013 T10561072
Loading
Personal Weather Stations






























Interactive Weather Map New forecast layout! Learn more

10-Day Weather Forecast

Advertisements
Track Severe Weather on mobile